Etusivu
METAR-TAF:

METAR-TAF

Lentoasemat :

El Goléa, Algeria

Leveyspiiri: 30-34N, Pituuspiiri: 002-52E, korkeus merenpinnasta: 397 m

Tämänhetkinen sää

Tämä raportti tehtiin 26 minuuttia sitten, kello 20.00 UTC
Tuuli 12 kn idästä
Lämpötila 13°C
Kosteus 88%
Ilmanpaine 1016 hPa
Näkyvyys 10 km tai enemmän
Hajanaisia pilviä 3300 ft:n korkeudessa

METAR: DAUE 142000Z 08012KT 9999 SCT033 13/11 Q1016

Aika: 21:26 (20:26 UTC)


TAF: puuttuu

Säähavainnot ja -ennusteet yli 4000 lentoasemalta (METAR- ja TAF-raportit).

Käytössä olevat sääasemat on merkitty karttaan keltaisilla ja punaisilla pisteillä.

Aseta hiiri pisteen päälle nähdäksesi sääaseman nimen.

Klikkaa sitten nähdäksesi säähavainnot ja -ennusteet.

Kartan vaihtaminen: klikkaa mustalla rastilla varustettuja vihreitä pisteitä, niin voit zoomata sisään; viivalla varustettua vihreää pistettä, niin voit zoomata ulos tai vihreitä nuolia, niin pääset viereisille kartoille.


METAR-TAF: